sensor_id;sensor_type;location;lat;lon;timestamp;pressure;altitude;pressure_sealevel;temperature;humidity
21555;BME280;10938;44.794;-0.676;2022-09-14T00:01:26;100050.28;;;30.59;35.30
21555;BME280;10938;44.794;-0.676;2022-09-14T00:04:01;100050.53;;;30.56;34.84
21555;BME280;10938;44.794;-0.676;2022-09-14T00:06:27;100058.09;;;31.71;32.63
21555;BME280;10938;44.794;-0.676;2022-09-14T00:08:55;100049.16;;;31.91;32.63
21555;BME280;10938;44.794;-0.676;2022-09-14T00:11:24;100038.78;;;31.66;33.13
21555;BME280;10938;44.794;-0.676;2022-09-14T00:13:50;100028.13;;;31.85;32.46
21555;BME280;10938;44.794;-0.676;2022-09-14T00:16:22;100037.97;;;32.16;31.84
21555;BME280;10938;44.794;-0.676;2022-09-14T00:18:53;100036.47;;;32.23;31.46
21555;BME280;10938;44.794;-0.676;2022-09-14T00:21:19;100032.28;;;31.89;32.18
21555;BME280;10938;44.794;-0.676;2022-09-14T00:23:44;100027.19;;;32.16;31.58
21555;BME280;10938;44.794;-0.676;2022-09-14T00:26:13;100028.91;;;32.17;31.54
21555;BME280;10938;44.794;-0.676;2022-09-14T00:28:47;100040.66;;;32.37;31.37
21555;BME280;10938;44.794;-0.676;2022-09-14T00:31:14;100041.69;;;32.45;31.26
21555;BME280;10938;44.794;-0.676;2022-09-14T00:33:41;100056.69;;;32.08;31.08
21555;BME280;10938;44.794;-0.676;2022-09-14T00:36:11;100049.22;;;32.00;31.54
21555;BME280;10938;44.794;-0.676;2022-09-14T00:38:37;100051.31;;;32.08;32.26
21555;BME280;10938;44.794;-0.676;2022-09-14T00:41:05;100040.63;;;32.06;32.43
21555;BME280;10938;44.794;-0.676;2022-09-14T00:43:32;100047.34;;;31.91;32.90
21555;BME280;10938;44.794;-0.676;2022-09-14T00:46:00;100039.84;;;31.95;32.74
21555;BME280;10938;44.794;-0.676;2022-09-14T00:48:28;100037.09;;;31.85;32.12
21555;BME280;10938;44.794;-0.676;2022-09-14T00:50:55;100037.13;;;31.74;32.35
21555;BME280;10938;44.794;-0.676;2022-09-14T00:53:20;100036.75;;;31.79;32.12
21555;BME280;10938;44.794;-0.676;2022-09-14T00:55:46;100046.03;;;31.86;31.86
21555;BME280;10938;44.794;-0.676;2022-09-14T00:58:12;100042.72;;;31.61;32.36
21555;BME280;10938;44.794;-0.676;2022-09-14T01:14:22;100045.44;;;31.82;32.53
21555;BME280;10938;44.794;-0.676;2022-09-14T01:22:32;100042.25;;;31.56;33.34
21555;BME280;10938;44.794;-0.676;2022-09-14T01:27:43;100037.25;;;28.55;39.63
21555;BME280;10938;44.794;-0.676;2022-09-14T01:30:11;100025.34;;;28.47;39.58
21555;BME280;10938;44.794;-0.676;2022-09-14T01:32:44;100019.06;;;28.35;39.73
21555;BME280;10938;44.794;-0.676;2022-09-14T01:35:23;100025.72;;;28.17;40.35
21555;BME280;10938;44.794;-0.676;2022-09-14T01:37:56;100015.84;;;28.18;40.03
21555;BME280;10938;44.794;-0.676;2022-09-14T01:40:28;100009.53;;;28.19;39.58
21555;BME280;10938;44.794;-0.676;2022-09-14T01:43:21;100005.66;;;28.35;39.42
21555;BME280;10938;44.794;-0.676;2022-09-14T01:45:52;100012.25;;;28.55;38.76
21555;BME280;10938;44.794;-0.676;2022-09-14T01:48:27;100013.31;;;28.65;38.16
21555;BME280;10938;44.794;-0.676;2022-09-14T01:50:56;100007.09;;;29.01;38.03
21555;BME280;10938;44.794;-0.676;2022-09-14T01:55:57;99998.06;;;30.18;35.18
21555;BME280;10938;44.794;-0.676;2022-09-14T02:01:00;100013.78;;;28.83;37.70
21555;BME280;10938;44.794;-0.676;2022-09-14T02:03:39;100009.91;;;28.50;38.62
21555;BME280;10938;44.794;-0.676;2022-09-14T02:06:36;100009.44;;;28.07;39.75
21555;BME280;10938;44.794;-0.676;2022-09-14T02:09:04;100005.34;;;29.47;36.67
21555;BME280;10938;44.794;-0.676;2022-09-14T02:11:30;100013.56;;;30.36;34.87
21555;BME280;10938;44.794;-0.676;2022-09-14T02:13:56;100022.88;;;30.99;34.14
21555;BME280;10938;44.794;-0.676;2022-09-14T02:16:22;100026.16;;;31.34;32.89
21555;BME280;10938;44.794;-0.676;2022-09-14T02:18:49;100010.28;;;31.20;33.07
21555;BME280;10938;44.794;-0.676;2022-09-14T02:21:17;100005.34;;;28.63;37.77
21555;BME280;10938;44.794;-0.676;2022-09-14T02:23:45;100014.31;;;30.72;34.26
21555;BME280;10938;44.794;-0.676;2022-09-14T02:26:14;100009.16;;;31.96;32.06
21555;BME280;10938;44.794;-0.676;2022-09-14T02:28:40;99990.69;;;32.42;31.27
21555;BME280;10938;44.794;-0.676;2022-09-14T02:31:15;99998.63;;;32.93;30.12
21555;BME280;10938;44.794;-0.676;2022-09-14T02:33:57;99995.56;;;29.46;36.28
21555;BME280;10938;44.794;-0.676;2022-09-14T02:36:43;99998.50;;;28.59;37.89
21555;BME280;10938;44.794;-0.676;2022-09-14T02:41:53;99992.16;;;28.24;38.96
21555;BME280;10938;44.794;-0.676;2022-09-14T02:44:33;100005.00;;;27.94;39.62
21555;BME280;10938;44.794;-0.676;2022-09-14T02:50:52;100001.25;;;28.09;39.14
21555;BME280;10938;44.794;-0.676;2022-09-14T02:52:50;100001.31;;;30.88;34.26
21555;BME280;10938;44.794;-0.676;2022-09-14T02:55:19;99995.88;;;28.83;37.53
21555;BME280;10938;44.794;-0.676;2022-09-14T03:00:28;99995.25;;;28.80;37.53
21555;BME280;10938;44.794;-0.676;2022-09-14T03:02:54;99998.03;;;28.65;38.04
21555;BME280;10938;44.794;-0.676;2022-09-14T03:05:19;99996.34;;;28.77;37.57
21555;BME280;10938;44.794;-0.676;2022-09-14T03:07:45;99998.06;;;28.78;38.05
21555;BME280;10938;44.794;-0.676;2022-09-14T03:10:10;99998.03;;;28.65;38.48
21555;BME280;10938;44.794;-0.676;2022-09-14T03:12:37;99994.69;;;29.11;37.07
21555;BME280;10938;44.794;-0.676;2022-09-14T03:15:03;99997.84;;;29.05;36.91
21555;BME280;10938;44.794;-0.676;2022-09-14T03:17:28;99999.50;;;29.19;37.11
21555;BME280;10938;44.794;-0.676;2022-09-14T03:19:54;99998.72;;;28.93;37.09
21555;BME280;10938;44.794;-0.676;2022-09-14T03:22:19;100002.28;;;28.93;37.39
21555;BME280;10938;44.794;-0.676;2022-09-14T03:24:44;99996.50;;;28.87;37.57
21555;BME280;10938;44.794;-0.676;2022-09-14T03:27:10;99993.63;;;28.41;38.53
21555;BME280;10938;44.794;-0.676;2022-09-14T03:29:35;100002.81;;;28.49;38.20
21555;BME280;10938;44.794;-0.676;2022-09-14T03:32:01;99998.72;;;28.56;37.75
21555;BME280;10938;44.794;-0.676;2022-09-14T03:34:26;100001.06;;;28.74;37.57
21555;BME280;10938;44.794;-0.676;2022-09-14T03:36:51;100004.00;;;28.94;37.14
21555;BME280;10938;44.794;-0.676;2022-09-14T03:39:17;99999.19;;;28.87;37.53
21555;BME280;10938;44.794;-0.676;2022-09-14T03:41:42;100001.00;;;30.59;34.94
21555;BME280;10938;44.794;-0.676;2022-09-14T03:44:09;99984.28;;;28.83;37.06
21555;BME280;10938;44.794;-0.676;2022-09-14T03:46:34;99984.97;;;28.74;37.87
21555;BME280;10938;44.794;-0.676;2022-09-14T03:48:59;99984.03;;;28.86;37.26
21555;BME280;10938;44.794;-0.676;2022-09-14T03:51:25;99984.69;;;28.89;37.25
21555;BME280;10938;44.794;-0.676;2022-09-14T03:53:50;99989.47;;;28.97;37.18
21555;BME280;10938;44.794;-0.676;2022-09-14T03:56:17;99990.88;;;29.26;36.45
21555;BME280;10938;44.794;-0.676;2022-09-14T03:58:44;99986.06;;;28.46;38.34
21555;BME280;10938;44.794;-0.676;2022-09-14T04:01:13;99981.63;;;28.34;38.67
21555;BME280;10938;44.794;-0.676;2022-09-14T04:03:40;99985.31;;;29.17;36.88
21555;BME280;10938;44.794;-0.676;2022-09-14T04:06:07;99989.91;;;29.27;36.45
21555;BME280;10938;44.794;-0.676;2022-09-14T04:08:37;99996.66;;;29.79;35.83
21555;BME280;10938;44.794;-0.676;2022-09-14T04:11:12;100001.47;;;29.51;35.84
21555;BME280;10938;44.794;-0.676;2022-09-14T04:13:37;100001.91;;;29.34;36.03
21555;BME280;10938;44.794;-0.676;2022-09-14T04:16:03;99990.56;;;29.18;36.72
21555;BME280;10938;44.794;-0.676;2022-09-14T04:18:29;99988.56;;;31.33;33.77
21555;BME280;10938;44.794;-0.676;2022-09-14T04:20:57;99992.91;;;32.68;30.89
21555;BME280;10938;44.794;-0.676;2022-09-14T04:23:23;99986.13;;;32.43;31.18
21555;BME280;10938;44.794;-0.676;2022-09-14T04:25:49;99985.16;;;33.60;28.95
21555;BME280;10938;44.794;-0.676;2022-09-14T04:28:15;99989.53;;;32.75;29.67
21555;BME280;10938;44.794;-0.676;2022-09-14T04:30:40;99980.31;;;30.04;35.29
21555;BME280;10938;44.794;-0.676;2022-09-14T04:33:06;99978.09;;;29.87;35.19
21555;BME280;10938;44.794;-0.676;2022-09-14T04:35:32;99981.75;;;29.75;35.80
21555;BME280;10938;44.794;-0.676;2022-09-14T04:37:57;99980.56;;;29.20;37.31
21555;BME280;10938;44.794;-0.676;2022-09-14T04:40:23;99980.63;;;28.84;38.05
21555;BME280;10938;44.794;-0.676;2022-09-14T04:42:48;99978.34;;;29.14;37.29
21555;BME280;10938;44.794;-0.676;2022-09-14T04:45:14;99971.03;;;28.92;37.86
21555;BME280;10938;44.794;-0.676;2022-09-14T04:47:39;99966.41;;;28.94;37.77
21555;BME280;10938;44.794;-0.676;2022-09-14T04:50:05;99970.44;;;28.89;38.04
21555;BME280;10938;44.794;-0.676;2022-09-14T04:52:30;99968.41;;;28.80;38.56
21555;BME280;10938;44.794;-0.676;2022-09-14T04:54:56;99974.94;;;29.12;38.11
21555;BME280;10938;44.794;-0.676;2022-09-14T04:57:21;99975.75;;;29.25;37.37
21555;BME280;10938;44.794;-0.676;2022-09-14T04:59:49;99978.97;;;29.52;36.84
21555;BME280;10938;44.794;-0.676;2022-09-14T05:02:15;99985.50;;;29.61;36.98
21555;BME280;10938;44.794;-0.676;2022-09-14T05:04:40;99981.59;;;29.30;37.20
21555;BME280;10938;44.794;-0.676;2022-09-14T05:07:06;99979.94;;;28.93;38.52
21555;BME280;10938;44.794;-0.676;2022-09-14T05:09:32;99989.72;;;29.41;37.34
21555;BME280;10938;44.794;-0.676;2022-09-14T05:11:57;99997.00;;;29.28;37.31
21555;BME280;10938;44.794;-0.676;2022-09-14T05:14:22;99997.13;;;28.67;39.13
21555;BME280;10938;44.794;-0.676;2022-09-14T05:16:48;99988.75;;;28.95;38.50
21555;BME280;10938;44.794;-0.676;2022-09-14T05:19:16;99987.75;;;28.96;38.26
21555;BME280;10938;44.794;-0.676;2022-09-14T05:21:42;99984.03;;;28.62;39.33
21555;BME280;10938;44.794;-0.676;2022-09-14T05:24:16;99981.16;;;28.89;38.92
21555;BME280;10938;44.794;-0.676;2022-09-14T05:26:43;99987.66;;;28.74;38.98
21555;BME280;10938;44.794;-0.676;2022-09-14T05:29:11;99985.50;;;28.79;38.69
21555;BME280;10938;44.794;-0.676;2022-09-14T05:31:37;99986.91;;;28.72;38.99
21555;BME280;10938;44.794;-0.676;2022-09-14T05:34:03;99978.84;;;32.64;31.56
21555;BME280;10938;44.794;-0.676;2022-09-14T05:36:28;99996.19;;;28.91;38.22
21555;BME280;10938;44.794;-0.676;2022-09-14T05:38:54;100001.38;;;28.82;38.68
21555;BME280;10938;44.794;-0.676;2022-09-14T05:41:21;99992.97;;;28.37;39.18
21555;BME280;10938;44.794;-0.676;2022-09-14T05:43:47;99994.94;;;27.85;40.45
21555;BME280;10938;44.794;-0.676;2022-09-14T05:46:15;99994.44;;;33.20;30.47
21555;BME280;10938;44.794;-0.676;2022-09-14T05:48:41;99997.41;;;34.67;28.09
21555;BME280;10938;44.794;-0.676;2022-09-14T05:51:12;99999.06;;;29.71;35.89
21555;BME280;10938;44.794;-0.676;2022-09-14T05:53:38;99991.69;;;34.60;28.33
21555;BME280;10938;44.794;-0.676;2022-09-14T05:56:06;99981.34;;;29.68;36.18
21555;BME280;10938;44.794;-0.676;2022-09-14T05:58:35;99980.97;;;29.03;37.07
21555;BME280;10938;44.794;-0.676;2022-09-14T06:01:09;99984.34;;;29.18;37.15
21555;BME280;10938;44.794;-0.676;2022-09-14T06:03:38;99987.88;;;29.18;37.63
21555;BME280;10938;44.794;-0.676;2022-09-14T06:06:05;99999.06;;;29.71;36.35
21555;BME280;10938;44.794;-0.676;2022-09-14T06:08:31;99995.91;;;29.66;36.85
21555;BME280;10938;44.794;-0.676;2022-09-14T06:11:02;99996.75;;;29.77;36.64
21555;BME280;10938;44.794;-0.676;2022-09-14T06:13:28;99995.72;;;29.91;36.29
21555;BME280;10938;44.794;-0.676;2022-09-14T06:15:53;100000.84;;;30.16;36.19
21555;BME280;10938;44.794;-0.676;2022-09-14T06:18:18;100001.63;;;30.51;35.46
21555;BME280;10938;44.794;-0.676;2022-09-14T06:20:50;100006.19;;;31.69;34.34
21555;BME280;10938;44.794;-0.676;2022-09-14T06:23:19;100020.50;;;35.16;30.51
21555;BME280;10938;44.794;-0.676;2022-09-14T06:25:44;100032.50;;;38.49;25.91
21555;BME280;10938;44.794;-0.676;2022-09-14T06:28:10;100022.47;;;41.26;22.23
21555;BME280;10938;44.794;-0.676;2022-09-14T06:30:35;100031.97;;;43.64;20.50
21555;BME280;10938;44.794;-0.676;2022-09-14T06:33:00;100039.78;;;45.03;18.42
21555;BME280;10938;44.794;-0.676;2022-09-14T06:35:28;100036.84;;;45.92;17.19
21555;BME280;10938;44.794;-0.676;2022-09-14T06:37:53;100050.16;;;47.17;16.28
21555;BME280;10938;44.794;-0.676;2022-09-14T06:40:20;100045.22;;;48.14;15.25
21555;BME280;10938;44.794;-0.676;2022-09-14T06:42:45;100053.59;;;49.17;14.31
21555;BME280;10938;44.794;-0.676;2022-09-14T06:45:10;100058.66;;;50.15;12.94
21555;BME280;10938;44.794;-0.676;2022-09-14T06:47:36;100060.72;;;50.58;12.35
21555;BME280;10938;44.794;-0.676;2022-09-14T06:50:01;100059.97;;;50.84;12.43
21555;BME280;10938;44.794;-0.676;2022-09-14T06:52:27;100048.25;;;50.05;12.68
21555;BME280;10938;44.794;-0.676;2022-09-14T06:54:53;100043.34;;;49.45;12.77
21555;BME280;10938;44.794;-0.676;2022-09-14T06:57:18;100041.94;;;50.26;12.78
21555;BME280;10938;44.794;-0.676;2022-09-14T06:59:43;100047.91;;;50.18;12.34
21555;BME280;10938;44.794;-0.676;2022-09-14T07:02:11;100043.25;;;47.79;13.69
21555;BME280;10938;44.794;-0.676;2022-09-14T07:04:37;100045.09;;;47.97;14.26
21555;BME280;10938;44.794;-0.676;2022-09-14T07:07:03;100043.09;;;48.79;13.34
21555;BME280;10938;44.794;-0.676;2022-09-14T07:09:28;100037.38;;;49.54;13.00
21555;BME280;10938;44.794;-0.676;2022-09-14T07:11:55;100041.56;;;50.78;12.09
21555;BME280;10938;44.794;-0.676;2022-09-14T07:14:21;100046.50;;;52.05;10.83
21555;BME280;10938;44.794;-0.676;2022-09-14T07:16:46;100049.00;;;53.10;10.61
21555;BME280;10938;44.794;-0.676;2022-09-14T07:19:13;100047.44;;;54.00;9.96
21555;BME280;10938;44.794;-0.676;2022-09-14T07:21:39;100050.75;;;53.47;10.11
21555;BME280;10938;44.794;-0.676;2022-09-14T07:24:05;100057.41;;;55.11;9.21
21555;BME280;10938;44.794;-0.676;2022-09-14T07:26:34;100056.22;;;54.63;9.05
21555;BME280;10938;44.794;-0.676;2022-09-14T07:29:05;100062.56;;;55.37;8.79
21555;BME280;10938;44.794;-0.676;2022-09-14T07:31:33;100076.28;;;56.07;8.64
21555;BME280;10938;44.794;-0.676;2022-09-14T07:34:00;100061.44;;;56.59;7.85
21555;BME280;10938;44.794;-0.676;2022-09-14T07:36:27;100057.19;;;55.85;8.32
21555;BME280;10938;44.794;-0.676;2022-09-14T07:38:53;100064.88;;;56.98;8.18
21555;BME280;10938;44.794;-0.676;2022-09-14T07:41:23;100066.72;;;57.26;7.38
21555;BME280;10938;44.794;-0.676;2022-09-14T07:43:50;100068.81;;;55.24;8.71
21555;BME280;10938;44.794;-0.676;2022-09-14T07:46:16;100062.81;;;54.97;8.46
21555;BME280;10938;44.794;-0.676;2022-09-14T07:48:42;100063.91;;;55.01;9.30
21555;BME280;10938;44.794;-0.676;2022-09-14T07:51:08;100062.19;;;55.54;8.75
21555;BME280;10938;44.794;-0.676;2022-09-14T07:53:38;100075.69;;;56.86;7.50
21555;BME280;10938;44.794;-0.676;2022-09-14T07:56:05;100075.66;;;58.30;7.20
21555;BME280;10938;44.794;-0.676;2022-09-14T07:58:32;100077.63;;;59.12;6.98
21555;BME280;10938;44.794;-0.676;2022-09-14T08:01:05;100084.84;;;58.63;7.08
21555;BME280;10938;44.794;-0.676;2022-09-14T08:03:33;100078.38;;;56.49;7.69
21555;BME280;10938;44.794;-0.676;2022-09-14T08:06:07;100066.84;;;54.56;9.02
21555;BME280;10938;44.794;-0.676;2022-09-14T08:08:34;100064.94;;;50.82;11.29
21555;BME280;10938;44.794;-0.676;2022-09-14T08:11:08;100051.81;;;48.24;13.07
21555;BME280;10938;44.794;-0.676;2022-09-14T08:13:39;100042.06;;;45.50;15.13
21555;BME280;10938;44.794;-0.676;2022-09-14T08:16:06;100051.41;;;46.85;14.38
21555;BME280;10938;44.794;-0.676;2022-09-14T08:18:32;100062.56;;;48.32;13.19
21555;BME280;10938;44.794;-0.676;2022-09-14T08:21:16;100063.44;;;47.38;13.78
21555;BME280;10938;44.794;-0.676;2022-09-14T08:23:43;100067.63;;;47.11;14.29
21555;BME280;10938;44.794;-0.676;2022-09-14T08:26:20;100067.69;;;47.04;14.29
21555;BME280;10938;44.794;-0.676;2022-09-14T08:28:47;100070.53;;;47.16;14.35
21555;BME280;10938;44.794;-0.676;2022-09-14T08:31:21;100081.16;;;46.83;14.10
21555;BME280;10938;44.794;-0.676;2022-09-14T08:34:00;100084.53;;;47.03;14.29
21555;BME280;10938;44.794;-0.676;2022-09-14T08:36:32;100094.31;;;46.44;15.02
21555;BME280;10938;44.794;-0.676;2022-09-14T08:38:58;100078.84;;;44.74;16.22
21555;BME280;10938;44.794;-0.676;2022-09-14T08:42:00;100083.28;;;42.96;18.16
21555;BME280;10938;44.794;-0.676;2022-09-14T08:44:56;100083.31;;;42.34;18.75
21555;BME280;10938;44.794;-0.676;2022-09-14T08:47:27;100083.06;;;42.01;19.07
21555;BME280;10938;44.794;-0.676;2022-09-14T08:52:54;100082.38;;;40.99;20.25
21555;BME280;10938;44.794;-0.676;2022-09-14T08:55:44;100089.03;;;40.38;20.00
21555;BME280;10938;44.794;-0.676;2022-09-14T09:01:22;100091.25;;;38.98;22.12
21555;BME280;10938;44.794;-0.676;2022-09-14T09:09:14;100098.94;;;40.02;20.60
21555;BME280;10938;44.794;-0.676;2022-09-14T09:11:45;100106.88;;;39.43;20.70
21555;BME280;10938;44.794;-0.676;2022-09-14T09:16:45;100104.25;;;39.81;20.43
21555;BME280;10938;44.794;-0.676;2022-09-14T09:19:17;100108.50;;;39.83;20.15
21555;BME280;10938;44.794;-0.676;2022-09-14T09:21:45;100108.06;;;39.72;20.71
21555;BME280;10938;44.794;-0.676;2022-09-14T09:24:44;100100.38;;;40.65;19.98
21555;BME280;10938;44.794;-0.676;2022-09-14T09:27:13;100107.19;;;41.48;19.25
21555;BME280;10938;44.794;-0.676;2022-09-14T09:29:40;100106.97;;;40.85;19.87
21555;BME280;10938;44.794;-0.676;2022-09-14T09:32:14;100110.97;;;42.11;18.62
21555;BME280;10938;44.794;-0.676;2022-09-14T09:34:40;100110.63;;;40.48;20.27
21555;BME280;10938;44.794;-0.676;2022-09-14T09:37:12;100109.06;;;40.83;19.82
21555;BME280;10938;44.794;-0.676;2022-09-14T09:39:38;100115.69;;;40.22;20.79
21555;BME280;10938;44.794;-0.676;2022-09-14T09:42:13;100115.63;;;39.61;21.58
21555;BME280;10938;44.794;-0.676;2022-09-14T09:47:36;100108.44;;;38.28;21.41
21555;BME280;10938;44.794;-0.676;2022-09-14T09:52:54;100112.72;;;38.46;21.12
21555;BME280;10938;44.794;-0.676;2022-09-14T09:55:23;100114.81;;;38.91;20.61
21555;BME280;10938;44.794;-0.676;2022-09-14T09:57:52;100113.91;;;38.99;20.69
21555;BME280;10938;44.794;-0.676;2022-09-14T10:00:25;100117.53;;;39.30;20.28
21555;BME280;10938;44.794;-0.676;2022-09-14T10:02:52;100124.88;;;38.75;20.86
21555;BME280;10938;44.794;-0.676;2022-09-14T10:10:39;100119.13;;;39.78;19.14
21555;BME280;10938;44.794;-0.676;2022-09-14T10:13:26;100110.16;;;39.70;18.90
21555;BME280;10938;44.794;-0.676;2022-09-14T10:15:52;100115.53;;;40.52;18.68
21555;BME280;10938;44.794;-0.676;2022-09-14T10:18:27;100102.84;;;40.59;18.79
21555;BME280;10938;44.794;-0.676;2022-09-14T10:23:25;100106.09;;;41.13;17.52
21555;BME280;10938;44.794;-0.676;2022-09-14T10:26:15;100117.09;;;41.49;17.11
21555;BME280;10938;44.794;-0.676;2022-09-14T10:28:43;100106.47;;;41.40;17.23
21555;BME280;10938;44.794;-0.676;2022-09-14T10:33:43;100107.34;;;41.83;16.27
21555;BME280;10938;44.794;-0.676;2022-09-14T10:38:49;100112.66;;;41.13;16.68
21555;BME280;10938;44.794;-0.676;2022-09-14T11:00:15;100123.19;;;41.66;16.70
21555;BME280;10938;44.794;-0.676;2022-09-14T11:05:40;100118.59;;;41.16;16.95
21555;BME280;10938;44.794;-0.676;2022-09-14T11:16:24;100110.22;;;38.84;18.77
21555;BME280;10938;44.794;-0.676;2022-09-14T11:22:05;100129.81;;;38.87;17.93
21555;BME280;10938;44.794;-0.676;2022-09-14T11:27:43;100125.16;;;38.33;18.72
21555;BME280;10938;44.794;-0.676;2022-09-14T11:30:15;100127.50;;;37.79;19.27
21555;BME280;10938;44.794;-0.676;2022-09-14T11:33:05;100130.09;;;38.45;18.78
21555;BME280;10938;44.794;-0.676;2022-09-14T11:35:41;100145.47;;;38.77;18.89
21555;BME280;10938;44.794;-0.676;2022-09-14T11:40:58;100138.25;;;37.89;19.63
21555;BME280;10938;44.794;-0.676;2022-09-14T11:46:17;100144.91;;;37.28;20.12
21555;BME280;10938;44.794;-0.676;2022-09-14T11:51:36;100153.50;;;37.57;19.84
21555;BME280;10938;44.794;-0.676;2022-09-14T11:54:10;100154.88;;;37.61;20.19
21555;BME280;10938;44.794;-0.676;2022-09-14T11:56:37;100162.25;;;37.35;20.51
21555;BME280;10938;44.794;-0.676;2022-09-14T11:59:05;100140.06;;;37.56;19.84
21555;BME280;10938;44.794;-0.676;2022-09-14T12:11:44;100164.81;;;38.43;19.26
21555;BME280;10938;44.794;-0.676;2022-09-14T12:19:43;100151.22;;;38.03;19.56
21555;BME280;10938;44.794;-0.676;2022-09-14T12:22:36;100158.31;;;37.88;19.78
21555;BME280;10938;44.794;-0.676;2022-09-14T12:27:30;100160.03;;;38.21;19.68
21555;BME280;10938;44.794;-0.676;2022-09-14T12:29:56;100151.47;;;38.73;18.92
21555;BME280;10938;44.794;-0.676;2022-09-14T12:32:51;100158.28;;;39.62;18.38
21555;BME280;10938;44.794;-0.676;2022-09-14T12:53:43;100140.19;;;38.92;18.54
21555;BME280;10938;44.794;-0.676;2022-09-14T12:56:24;100159.06;;;39.79;17.80
21555;BME280;10938;44.794;-0.676;2022-09-14T13:01:33;100146.78;;;39.44;17.43
21555;BME280;10938;44.794;-0.676;2022-09-14T13:03:59;100142.00;;;39.46;17.57
21555;BME280;10938;44.794;-0.676;2022-09-14T13:06:32;100149.38;;;39.38;18.02
21555;BME280;10938;44.794;-0.676;2022-09-14T13:09:00;100149.63;;;38.73;18.48
21555;BME280;10938;44.794;-0.676;2022-09-14T13:11:36;100142.63;;;39.56;17.57
21555;BME280;10938;44.794;-0.676;2022-09-14T13:14:04;100154.47;;;39.41;18.01
21555;BME280;10938;44.794;-0.676;2022-09-14T13:16:42;100147.03;;;40.11;17.48
21555;BME280;10938;44.794;-0.676;2022-09-14T13:19:37;100146.88;;;40.65;16.98
21555;BME280;10938;44.794;-0.676;2022-09-14T13:22:16;100136.44;;;40.31;16.99
21555;BME280;10938;44.794;-0.676;2022-09-14T13:24:43;100137.97;;;40.33;17.09
21555;BME280;10938;44.794;-0.676;2022-09-14T13:27:30;100141.03;;;41.11;16.51
21555;BME280;10938;44.794;-0.676;2022-09-14T13:30:19;100138.44;;;40.51;16.69
21555;BME280;10938;44.794;-0.676;2022-09-14T13:32:48;100128.00;;;40.55;16.92
21555;BME280;10938;44.794;-0.676;2022-09-14T13:37:58;100130.66;;;40.78;16.54
21555;BME280;10938;44.794;-0.676;2022-09-14T13:40:27;100142.28;;;40.28;16.58
21555;BME280;10938;44.794;-0.676;2022-09-14T13:42:55;100135.09;;;39.28;17.45
21555;BME280;10938;44.794;-0.676;2022-09-14T13:45:21;100125.50;;;39.40;17.69
21555;BME280;10938;44.794;-0.676;2022-09-14T13:47:47;100130.78;;;39.72;17.52
21555;BME280;10938;44.794;-0.676;2022-09-14T13:50:13;100120.44;;;39.21;18.03
21555;BME280;10938;44.794;-0.676;2022-09-14T13:52:40;100137.75;;;39.05;17.91
21555;BME280;10938;44.794;-0.676;2022-09-14T13:55:13;100127.94;;;39.27;17.61
21555;BME280;10938;44.794;-0.676;2022-09-14T13:58:04;100129.91;;;39.72;17.27
21555;BME280;10938;44.794;-0.676;2022-09-14T14:00:30;100133.50;;;39.64;17.71
21555;BME280;10938;44.794;-0.676;2022-09-14T14:03:01;100127.56;;;39.38;17.79
21555;BME280;10938;44.794;-0.676;2022-09-14T14:05:32;100124.81;;;39.69;17.60
21555;BME280;10938;44.794;-0.676;2022-09-14T14:08:00;100120.13;;;39.77;17.59
21555;BME280;10938;44.794;-0.676;2022-09-14T14:12:52;100114.88;;;39.76;17.69
21555;BME280;10938;44.794;-0.676;2022-09-14T14:17:43;100102.22;;;39.52;17.83
21555;BME280;10938;44.794;-0.676;2022-09-14T14:20:30;100104.69;;;40.07;17.15
21555;BME280;10938;44.794;-0.676;2022-09-14T14:25:53;100100.81;;;40.01;16.67
21555;BME280;10938;44.794;-0.676;2022-09-14T14:28:24;100107.38;;;39.16;17.68
21555;BME280;10938;44.794;-0.676;2022-09-14T14:30:51;100101.47;;;38.41;17.84
21555;BME280;10938;44.794;-0.676;2022-09-14T14:33:18;100088.50;;;38.51;18.04
21555;BME280;10938;44.794;-0.676;2022-09-14T14:35:45;100078.84;;;38.96;17.75
21555;BME280;10938;44.794;-0.676;2022-09-14T14:38:11;100090.59;;;38.25;18.55
21555;BME280;10938;44.794;-0.676;2022-09-14T14:40:37;100092.44;;;38.33;17.96
21555;BME280;10938;44.794;-0.676;2022-09-14T14:43:04;100090.56;;;38.33;18.32
21555;BME280;10938;44.794;-0.676;2022-09-14T14:45:31;100083.28;;;38.89;17.50
21555;BME280;10938;44.794;-0.676;2022-09-14T14:47:58;100093.19;;;38.82;18.29
21555;BME280;10938;44.794;-0.676;2022-09-14T14:50:29;100077.00;;;38.09;18.64
21555;BME280;10938;44.794;-0.676;2022-09-14T14:52:55;100081.41;;;37.78;19.38
21555;BME280;10938;44.794;-0.676;2022-09-14T14:55:22;100074.75;;;37.80;19.39
21555;BME280;10938;44.794;-0.676;2022-09-14T14:57:49;100081.22;;;37.87;19.70
21555;BME280;10938;44.794;-0.676;2022-09-14T15:00:24;100072.22;;;37.79;19.47
21555;BME280;10938;44.794;-0.676;2022-09-14T15:02:49;100077.66;;;37.62;19.67
21555;BME280;10938;44.794;-0.676;2022-09-14T15:05:16;100082.00;;;37.31;19.70
21555;BME280;10938;44.794;-0.676;2022-09-14T15:07:41;100090.53;;;37.44;19.76
21555;BME280;10938;44.794;-0.676;2022-09-14T15:10:12;100085.25;;;37.35;20.03
21555;BME280;10938;44.794;-0.676;2022-09-14T15:12:38;100076.38;;;37.25;20.27
21555;BME280;10938;44.794;-0.676;2022-09-14T15:15:04;100076.88;;;37.12;20.53
21555;BME280;10938;44.794;-0.676;2022-09-14T15:17:29;100091.38;;;36.95;20.50
21555;BME280;10938;44.794;-0.676;2022-09-14T15:19:55;100083.13;;;37.04;20.44
21555;BME280;10938;44.794;-0.676;2022-09-14T15:22:20;100093.47;;;37.01;20.47
21555;BME280;10938;44.794;-0.676;2022-09-14T15:24:45;100096.94;;;37.19;20.40
21555;BME280;10938;44.794;-0.676;2022-09-14T15:27:11;100096.19;;;37.91;19.52
21555;BME280;10938;44.794;-0.676;2022-09-14T15:29:36;100100.03;;;37.40;20.21
21555;BME280;10938;44.794;-0.676;2022-09-14T15:32:02;100088.41;;;37.14;20.59
21555;BME280;10938;44.794;-0.676;2022-09-14T15:34:28;100093.53;;;37.17;20.51
21555;BME280;10938;44.794;-0.676;2022-09-14T15:36:53;100102.16;;;37.04;20.73